Time,TemperatureF,DewpointF,PressureIn,WindDirection,WindDirectionDegrees,WindSpeedMPH,WindSpeedGustMPH,Humidity,HourlyPrecipIn,Conditions,Clouds,dailyrainin,SoftwareType,DateUTC
2013-03-31 00:04:00,34.7,34.2,29.88,ENE,75,5.8,5.8,98,0.00,,,0.00,VWS V14.01,2013-03-31 00:04:00,
2013-03-31 00:09:00,34.9,34.4,29.88,ENE,74,2.7,3.1,98,0.00,,,0.00,VWS V14.01,2013-03-31 00:09:00,
2013-03-31 00:14:00,34.9,34.4,29.88,NE,34,3.1,4.9,98,0.00,,,0.00,VWS V14.01,2013-03-31 00:14:00,
2013-03-31 00:19:00,34.9,34.4,29.88,NNE,33,2.7,2.7,98,0.00,,,0.00,VWS V14.01,2013-03-31 00:19:00,
2013-03-31 00:24:00,34.9,34.4,29.88,ENE,77,2.7,2.7,98,0.00,,,0.00,VWS V14.01,2013-03-31 00:24:00,
2013-03-31 00:29:00,34.7,34.2,29.88,ENE,63,0.0,0.0,98,0.00,,,0.00,VWS V14.01,2013-03-31 00:29:00,
2013-03-31 00:34:00,34.3,33.8,29.88,ENE,63,0.0,0.0,98,0.00,,,0.00,VWS V14.01,2013-03-31 00:34:00,
2013-03-31 00:39:00,34.0,33.5,29.88,ENE,63,0.0,0.0,98,0.00,,,0.00,VWS V14.01,2013-03-31 00:39:00,
2013-03-31 00:44:00,33.6,33.1,29.88,ENE,63,0.0,0.0,98,0.00,,,0.00,VWS V14.01,2013-03-31 00:44:00,
2013-03-31 00:49:00,33.1,32.6,29.88,NE,53,0.0,0.0,98,0.00,,,0.00,VWS V14.01,2013-03-31 00:49:00,
2013-03-31 00:54:00,32.9,32.4,29.88,NE,39,3.6,3.6,98,0.00,,,0.00,VWS V14.01,2013-03-31 00:54:00,
2013-03-31 00:59:00,32.9,32.4,29.91,NNE,22,0.0,0.0,98,0.00,,,0.00,VWS V14.01,2013-03-31 00:59:00,
2013-03-31 02:04:00,32.7,32.2,29.91,NNE,22,0.0,0.0,98,0.00,,,0.00,VWS V14.01,2013-03-31 01:04:00,
2013-03-31 02:09:00,32.5,32.0,29.91,NNE,22,0.0,0.0,98,0.00,,,0.00,VWS V14.01,2013-03-31 01:09:00,
2013-03-31 02:15:00,32.4,31.9,29.88,NNE,22,0.0,0.0,98,0.00,,,0.00,VWS V14.01,2013-03-31 01:15:00,
2013-03-31 02:20:00,32.2,31.7,29.88,NNE,22,0.0,0.0,98,0.00,,,0.00,VWS V14.01,2013-03-31 01:20:00,
2013-03-31 02:25:00,31.8,31.3,29.88,NNE,22,0.0,0.0,98,0.00,,,0.00,VWS V14.01,2013-03-31 01:25:00,
2013-03-31 02:30:00,31.6,31.1,29.88,NNE,22,0.0,0.0,98,0.00,,,0.00,VWS V14.01,2013-03-31 01:30:00,
2013-03-31 02:35:00,31.5,31.0,29.88,NNE,22,0.0,0.0,98,0.00,,,0.00,VWS V14.01,2013-03-31 01:35:00,
2013-03-31 02:40:00,31.3,30.8,29.88,NNE,22,0.0,0.0,98,0.00,,,0.00,VWS V14.01,2013-03-31 01:40:00,
2013-03-31 02:45:00,31.1,30.6,29.88,NNE,22,0.0,0.0,98,0.00,,,0.00,VWS V14.01,2013-03-31 01:45:00,
2013-03-31 02:50:00,30.9,30.4,29.88,NNE,22,0.0,0.0,98,0.00,,,0.00,VWS V14.01,2013-03-31 01:50:00,
2013-03-31 02:55:00,30.9,30.4,29.88,NNE,22,0.0,0.0,98,0.00,,,0.00,VWS V14.01,2013-03-31 01:55:00,
2013-03-31 03:00:00,30.7,30.2,29.91,NNE,22,0.0,0.0,98,0.00,,,0.00,VWS V14.01,2013-03-31 02:00:00,
2013-03-31 03:05:00,30.4,29.9,29.91,NNE,22,0.0,0.0,98,0.00,,,0.00,VWS V14.01,2013-03-31 02:05:00,
2013-03-31 03:10:00,30.4,29.9,29.91,NNE,22,0.0,0.0,98,0.00,,,0.00,VWS V14.01,2013-03-31 02:10:00,
2013-03-31 03:15:00,30.6,30.1,29.91,NNE,22,0.0,0.0,98,0.00,,,0.00,VWS V14.01,2013-03-31 02:15:00,
2013-03-31 03:20:00,30.4,29.9,29.91,NNE,22,0.0,0.0,98,0.00,,,0.00,VWS V14.01,2013-03-31 02:20:00,
2013-03-31 03:25:00,30.4,29.9,29.91,NNE,22,0.0,0.0,98,0.00,,,0.00,VWS V14.01,2013-03-31 02:25:00,
2013-03-31 03:30:00,30.2,29.7,29.91,NNE,22,0.0,0.0,98,0.00,,,0.00,VWS V14.01,2013-03-31 02:30:00,
2013-03-31 03:35:00,30.0,29.5,29.91,NNE,22,0.0,0.0,98,0.00,,,0.00,VWS V14.01,2013-03-31 02:35:00,
2013-03-31 03:40:00,29.8,29.3,29.91,NNE,22,0.0,0.0,98,0.00,,,0.00,VWS V14.01,2013-03-31 02:40:00,
2013-03-31 03:45:00,29.8,29.3,29.91,NNE,22,0.0,0.0,98,0.00,,,0.00,VWS V14.01,2013-03-31 02:45:00,
2013-03-31 03:50:00,29.7,29.2,29.91,NNE,22,0.0,0.0,98,0.00,,,0.00,VWS V14.01,2013-03-31 02:50:00,
2013-03-31 03:55:00,29.7,29.2,29.91,NNE,22,0.0,0.0,98,0.00,,,0.00,VWS V14.01,2013-03-31 02:55:00,
2013-03-31 04:00:00,29.5,29.0,29.91,NNE,22,0.0,0.0,98,0.00,,,0.00,VWS V14.01,2013-03-31 03:00:00,
2013-03-31 04:05:00,29.5,29.0,29.91,NNE,22,0.0,0.0,98,0.00,,,0.00,VWS V14.01,2013-03-31 03:05:00,
2013-03-31 04:10:00,29.3,28.8,29.91,NNE,22,0.0,0.0,98,0.00,,,0.00,VWS V14.01,2013-03-31 03:10:00,
2013-03-31 04:15:00,29.3,28.8,29.91,NNE,22,0.0,0.0,98,0.00,,,0.00,VWS V14.01,2013-03-31 03:15:00,
2013-03-31 04:20:00,29.1,28.6,29.91,NNE,22,0.0,0.0,98,0.00,,,0.00,VWS V14.01,2013-03-31 03:20:00,
2013-03-31 04:26:00,29.1,28.6,29.91,NNE,22,0.0,0.0,98,0.00,,,0.00,VWS V14.01,2013-03-31 03:26:00,
2013-03-31 04:31:00,28.9,28.5,29.91,NNE,22,0.0,0.0,98,0.00,,,0.00,VWS V14.01,2013-03-31 03:31:00,
2013-03-31 04:36:00,28.9,28.5,29.91,NNE,22,0.0,0.0,98,0.00,,,0.00,VWS V14.01,2013-03-31 03:36:00,
2013-03-31 04:41:00,28.8,28.3,29.91,NNE,22,0.0,0.0,98,0.00,,,0.00,VWS V14.01,2013-03-31 03:41:00,
2013-03-31 04:46:00,28.8,28.3,29.88,NNE,22,0.0,0.0,98,0.00,,,0.00,VWS V14.01,2013-03-31 03:46:00,
2013-03-31 04:51:00,28.6,28.1,29.88,NNE,22,0.0,0.0,98,0.00,,,0.00,VWS V14.01,2013-03-31 03:51:00,
2013-03-31 04:56:00,28.6,28.1,29.88,NNE,22,0.0,0.0,98,0.00,,,0.00,VWS V14.01,2013-03-31 03:56:00,
2013-03-31 05:00:00,28.6,28.1,29.91,NNE,22,0.0,0.0,98,0.00,,,0.00,VWS V14.01,2013-03-31 04:00:00,
2013-03-31 05:04:00,28.4,27.9,29.91,NNE,22,0.0,0.0,98,0.00,,,0.00,VWS V14.01,2013-03-31 04:04:00,
2013-03-31 05:09:00,28.4,27.9,29.91,NNE,22,0.0,0.0,98,0.00,,,0.00,VWS V14.01,2013-03-31 04:09:00,
2013-03-31 05:14:00,28.4,27.9,29.91,NNE,22,0.0,0.0,98,0.00,,,0.00,VWS V14.01,2013-03-31 04:14:00,
2013-03-31 05:19:00,28.2,27.7,29.91,NNE,22,0.0,0.0,98,0.00,,,0.00,VWS V14.01,2013-03-31 04:19:00,
2013-03-31 05:24:00,28.0,27.5,29.91,NNE,22,0.0,0.0,98,0.00,,,0.00,VWS V14.01,2013-03-31 04:24:00,
2013-03-31 05:29:00,28.0,27.5,29.91,NNE,22,0.0,0.0,98,0.00,,,0.00,VWS V14.01,2013-03-31 04:29:00,
2013-03-31 05:34:00,28.0,27.5,29.91,NNE,22,0.0,0.0,98,0.00,,,0.00,VWS V14.01,2013-03-31 04:34:00,
2013-03-31 05:39:00,28.0,27.5,29.91,NNE,22,0.0,0.0,98,0.00,,,0.00,VWS V14.01,2013-03-31 04:39:00,
2013-03-31 05:44:00,27.9,27.4,29.91,NNE,22,0.0,0.0,98,0.00,,,0.00,VWS V14.01,2013-03-31 04:44:00,
2013-03-31 05:49:00,27.9,27.4,29.91,NNE,22,0.0,0.0,98,0.00,,,0.00,VWS V14.01,2013-03-31 04:49:00,
2013-03-31 05:54:00,27.9,27.4,29.91,NNE,22,0.0,0.0,98,0.00,,,0.00,VWS V14.01,2013-03-31 04:54:00,
2013-03-31 06:00:00,27.7,27.2,29.91,NNE,22,0.0,0.0,98,0.00,,,0.00,VWS V14.01,2013-03-31 05:00:00,
2013-03-31 06:05:00,27.7,27.2,29.91,NNE,22,0.0,0.0,98,0.00,,,0.00,VWS V14.01,2013-03-31 05:05:00,
2013-03-31 06:10:00,27.5,27.0,29.91,NNE,22,0.0,0.0,98,0.00,,,0.00,VWS V14.01,2013-03-31 05:10:00,
2013-03-31 06:15:00,27.5,27.0,29.91,NNE,22,0.0,0.0,98,0.00,,,0.00,VWS V14.01,2013-03-31 05:15:00,
2013-03-31 06:20:00,27.5,27.0,29.91,NNE,22,0.0,0.0,98,0.00,,,0.00,VWS V14.01,2013-03-31 05:20:00,
2013-03-31 06:25:00,27.3,26.8,29.91,NNE,22,0.0,0.0,98,0.00,,,0.00,VWS V14.01,2013-03-31 05:25:00,
2013-03-31 06:30:00,27.3,26.8,29.91,NNE,22,0.0,0.0,98,0.00,,,0.00,VWS V14.01,2013-03-31 05:30:00,
2013-03-31 06:35:00,27.3,26.8,29.91,NNE,22,0.0,0.0,98,0.00,,,0.00,VWS V14.01,2013-03-31 05:35:00,
2013-03-31 06:40:00,27.3,26.8,29.91,NNE,22,0.0,0.0,98,0.00,,,0.00,VWS V14.01,2013-03-31 05:40:00,
2013-03-31 06:45:00,27.3,26.8,29.91,NNE,22,0.0,0.0,98,0.00,,,0.00,VWS V14.01,2013-03-31 05:45:00,
2013-03-31 06:50:00,27.1,26.6,29.91,NNE,22,0.0,0.0,98,0.00,,,0.00,VWS V14.01,2013-03-31 05:50:00,
2013-03-31 06:55:00,27.1,26.6,29.91,NNE,22,0.0,0.0,98,0.00,,,0.00,VWS V14.01,2013-03-31 05:55:00,
2013-03-31 07:00:00,27.3,26.8,29.91,NNE,22,0.0,0.0,98,0.00,,,0.00,VWS V14.01,2013-03-31 06:00:00,
2013-03-31 07:05:00,27.3,26.8,29.91,NNE,22,0.0,0.0,98,0.00,,,0.00,VWS V14.01,2013-03-31 06:05:00,
2013-03-31 07:10:00,27.5,27.0,29.91,NNE,22,0.0,0.0,98,0.00,,,0.00,VWS V14.01,2013-03-31 06:10:00,
2013-03-31 07:16:00,27.7,27.2,29.91,NNE,22,0.0,0.0,98,0.00,,,0.00,VWS V14.01,2013-03-31 06:16:00,
2013-03-31 07:21:00,27.9,27.4,29.91,NNE,22,0.0,0.0,98,0.00,,,0.00,VWS V14.01,2013-03-31 06:21:00,
2013-03-31 07:26:00,27.9,27.4,29.91,NNE,22,0.0,0.0,98,0.00,,,0.00,VWS V14.01,2013-03-31 06:26:00,
2013-03-31 07:31:00,28.2,27.7,29.91,NNE,22,0.0,0.0,98,0.00,,,0.00,VWS V14.01,2013-03-31 06:31:00,
2013-03-31 07:36:00,28.8,28.3,29.91,NNE,22,0.0,0.0,98,0.00,,,0.00,VWS V14.01,2013-03-31 06:36:00,
2013-03-31 07:41:00,29.5,29.0,29.91,NNE,22,0.0,0.0,98,0.00,,,0.00,VWS V14.01,2013-03-31 06:41:00,
2013-03-31 07:46:00,30.0,29.5,29.91,NNE,22,0.0,0.0,98,0.00,,,0.00,VWS V14.01,2013-03-31 06:46:00,
2013-03-31 07:51:00,30.7,30.2,29.91,NNE,22,0.0,0.0,98,0.00,,,0.00,VWS V14.01,2013-03-31 06:51:00,
2013-03-31 07:57:00,31.6,31.1,29.91,NNE,22,0.0,0.0,98,0.00,,,0.00,VWS V14.01,2013-03-31 06:57:00,
2013-03-31 08:02:00,32.4,31.9,29.91,NNE,22,0.0,0.0,98,0.00,,,0.00,VWS V14.01,2013-03-31 07:02:00,
2013-03-31 08:07:00,32.7,32.2,29.91,NNE,22,0.0,0.0,98,0.00,,,0.00,VWS V14.01,2013-03-31 07:07:00,
2013-03-31 08:12:00,33.3,32.8,29.91,NNE,22,0.0,0.0,98,0.00,,,0.00,VWS V14.01,2013-03-31 07:12:00,
2013-03-31 08:17:00,33.6,33.1,29.91,ENE,78,0.0,0.0,98,0.00,,,0.00,VWS V14.01,2013-03-31 07:17:00,
2013-03-31 08:22:00,34.2,33.7,29.91,ENE,75,2.7,3.1,98,0.00,,,0.00,VWS V14.01,2013-03-31 07:22:00,
2013-03-31 08:27:00,34.9,34.4,29.91,ENE,78,3.1,3.6,98,0.00,,,0.00,VWS V14.01,2013-03-31 07:27:00,
2013-03-31 08:32:00,35.2,34.7,29.91,East,87,4.9,4.9,98,0.00,,,0.00,VWS V14.01,2013-03-31 07:32:00,
2013-03-31 08:37:00,35.4,34.9,29.91,ENE,71,4.9,4.9,98,0.00,,,0.00,VWS V14.01,2013-03-31 07:37:00,
2013-03-31 08:42:00,35.8,35.3,29.91,ENE,75,4.0,5.4,98,0.00,,,0.00,VWS V14.01,2013-03-31 07:42:00,
2013-03-31 08:47:00,36.1,35.6,29.91,ENE,67,5.4,5.8,98,0.00,,,0.00,VWS V14.01,2013-03-31 07:47:00,
2013-03-31 08:52:00,36.7,36.2,29.91,East,88,4.0,4.9,98,0.00,,,0.00,VWS V14.01,2013-03-31 07:52:00,
2013-03-31 08:57:00,37.0,36.5,29.91,ENE,72,6.3,6.3,98,0.00,,,0.00,VWS V14.01,2013-03-31 07:57:00,
2013-03-31 09:02:00,37.6,37.1,29.91,East,79,5.4,5.8,98,0.00,,,0.00,VWS V14.01,2013-03-31 08:02:00,
2013-03-31 09:07:00,38.1,37.6,29.91,ENE,58,3.6,6.3,98,0.00,,,0.00,VWS V14.01,2013-03-31 08:07:00,
2013-03-31 09:12:00,38.7,38.2,29.91,ENE,62,5.4,5.8,98,0.00,,,0.00,VWS V14.01,2013-03-31 08:12:00,
2013-03-31 09:17:00,39.4,38.9,29.91,ENE,76,4.9,5.8,98,0.00,,,0.00,VWS V14.01,2013-03-31 08:17:00,
2013-03-31 09:22:00,39.9,39.4,29.91,NNE,26,2.7,3.6,98,0.00,,,0.00,VWS V14.01,2013-03-31 08:22:00,
2013-03-31 09:27:00,40.3,39.8,29.91,ENE,60,5.8,6.3,98,0.00,,,0.00,VWS V14.01,2013-03-31 08:27:00,
2013-03-31 09:32:00,40.8,40.3,29.91,East,83,6.3,6.7,98,0.00,,,0.00,VWS V14.01,2013-03-31 08:32:00,
2013-03-31 09:37:00,41.4,40.8,29.91,East,101,3.6,5.8,98,0.00,,,0.00,VWS V14.01,2013-03-31 08:37:00,
2013-03-31 09:42:00,41.2,40.7,29.91,East,101,8.3,8.3,98,0.00,,,0.00,VWS V14.01,2013-03-31 08:42:00,
2013-03-31 09:47:00,41.4,40.3,29.91,ESE,105,5.4,7.6,96,0.00,,,0.00,VWS V14.01,2013-03-31 08:47:00,
2013-03-31 09:52:00,41.7,38.7,29.91,East,92,4.9,4.9,89,0.00,,,0.00,VWS V14.01,2013-03-31 08:52:00,
2013-03-31 09:57:00,42.8,39.8,29.91,East,82,7.2,7.2,89,0.00,,,0.00,VWS V14.01,2013-03-31 08:57:00,
2013-03-31 10:02:00,42.8,37.4,29.91,North,7,4.9,6.3,81,0.00,,,0.00,VWS V14.01,2013-03-31 09:02:00,
2013-03-31 10:07:00,42.8,33.7,29.91,NNE,23,6.7,11.0,70,0.00,,,0.00,VWS V14.01,2013-03-31 09:07:00,
2013-03-31 10:13:00,43.0,35.6,29.91,NE,51,8.3,8.3,75,0.00,,,0.00,VWS V14.01,2013-03-31 09:13:00,
2013-03-31 10:18:00,42.8,34.1,29.91,NNE,12,5.8,5.8,71,0.00,,,0.00,VWS V14.01,2013-03-31 09:18:00,
2013-03-31 10:23:00,43.3,35.6,29.91,NE,56,4.9,4.9,74,0.00,,,0.00,VWS V14.01,2013-03-31 09:23:00,
2013-03-31 10:28:00,43.3,33.5,29.91,East,100,5.4,6.3,68,0.00,,,0.00,VWS V14.01,2013-03-31 09:28:00,
2013-03-31 10:33:00,43.5,34.8,29.91,ENE,76,3.1,10.5,71,0.00,,,0.00,VWS V14.01,2013-03-31 09:33:00,
2013-03-31 10:38:00,43.2,34.4,29.91,ENE,70,5.4,8.3,71,0.00,,,0.00,VWS V14.01,2013-03-31 09:38:00,
2013-03-31 10:43:00,43.2,34.8,29.91,East,100,5.8,6.3,72,0.00,,,0.00,VWS V14.01,2013-03-31 09:43:00,
2013-03-31 10:48:00,42.6,26.7,29.91,North,4,8.1,8.1,53,0.00,,,0.00,VWS V14.01,2013-03-31 09:48:00,
2013-03-31 10:53:00,43.0,29.2,29.91,NE,43,8.3,8.3,58,0.00,,,0.00,VWS V14.01,2013-03-31 09:53:00,
2013-03-31 10:58:00,43.3,30.8,29.91,East,89,5.8,7.6,61,0.00,,,0.00,VWS V14.01,2013-03-31 09:58:00,
2013-03-31 11:03:00,44.2,34.4,29.91,East,89,9.6,13.2,68,0.00,,FEW030,0.00,VWS V14.01,2013-03-31 10:03:00,
2013-03-31 11:08:00,44.1,31.1,29.91,East,96,6.3,8.7,60,0.00,,FEW030,0.00,VWS V14.01,2013-03-31 10:08:00,
2013-03-31 11:13:00,43.9,31.7,29.88,ENE,63,4.9,8.1,62,0.00,,FEW030,0.00,VWS V14.01,2013-03-31 10:13:00,
2013-03-31 11:18:00,44.1,33.8,29.88,East,97,8.1,8.1,67,0.00,,FEW030,0.00,VWS V14.01,2013-03-31 10:18:00,
2013-03-31 11:23:00,45.0,35.8,29.88,ESE,106,11.4,11.4,70,0.00,,FEW030,0.00,VWS V14.01,2013-03-31 10:23:00,
2013-03-31 11:28:00,44.4,29.7,29.88,East,79,3.6,7.6,56,0.00,,FEW030,0.00,VWS V14.01,2013-03-31 10:28:00,
2013-03-31 11:33:00,42.8,28.6,29.88,ESE,112,5.8,9.6,57,0.00,,FEW030,0.00,VWS V14.01,2013-03-31 10:33:00,
2013-03-31 11:39:00,42.1,31.9,29.88,NE,50,4.0,5.4,67,0.00,,FEW030,0.00,VWS V14.01,2013-03-31 10:39:00,
2013-03-31 11:44:00,41.5,29.9,29.88,ENE,61,8.1,8.1,63,0.00,,FEW030,0.00,VWS V14.01,2013-03-31 10:44:00,
2013-03-31 11:49:00,41.2,29.9,29.88,NE,35,8.1,8.3,64,0.00,,FEW030,0.00,VWS V14.01,2013-03-31 10:49:00,
2013-03-31 11:54:00,40.8,29.6,29.88,ESE,109,7.2,8.7,64,0.00,,FEW030,0.00,VWS V14.01,2013-03-31 10:54:00,
2013-03-31 11:59:00,40.5,29.6,29.88,East,84,6.3,8.1,65,0.00,,FEW030,0.00,VWS V14.01,2013-03-31 10:59:00,
2013-03-31 12:04:00,40.5,31.5,29.88,NE,34,5.4,5.8,70,0.00,,SCT042,0.00,VWS V14.01,2013-03-31 11:04:00,
2013-03-31 12:09:00,40.1,28.5,29.88,NE,56,7.6,8.3,63,0.00,,SCT042,0.00,VWS V14.01,2013-03-31 11:09:00,
2013-03-31 12:14:00,40.3,30.2,29.88,East,101,4.9,5.4,67,0.00,,SCT042,0.00,VWS V14.01,2013-03-31 11:14:00,
2013-03-31 12:19:00,40.5,32.2,29.88,East,82,5.8,6.3,72,0.00,,SCT042,0.00,VWS V14.01,2013-03-31 11:19:00,
2013-03-31 12:24:00,41.0,33.4,29.88,ESE,111,4.5,5.4,74,0.00,,SCT042,0.00,VWS V14.01,2013-03-31 11:24:00,
2013-03-31 12:29:00,41.2,32.5,29.88,East,84,5.4,5.8,71,0.00,,SCT042,0.00,VWS V14.01,2013-03-31 11:29:00,
2013-03-31 12:34:00,41.4,30.9,29.88,East,99,7.6,7.6,66,0.00,,SCT042,0.00,VWS V14.01,2013-03-31 11:34:00,
2013-03-31 12:39:00,41.9,32.8,29.88,ESE,118,8.7,9.2,70,0.00,,SCT042,0.00,VWS V14.01,2013-03-31 11:39:00,
2013-03-31 12:44:00,42.3,32.1,29.88,ENE,69,6.3,6.3,67,0.00,,SCT042,0.00,VWS V14.01,2013-03-31 11:44:00,
2013-03-31 12:50:00,41.7,24.9,29.88,East,92,10.5,11.0,51,0.00,,SCT042,0.00,VWS V14.01,2013-03-31 11:50:00,
2013-03-31 12:55:00,42.4,30.8,29.88,SE,130,7.6,8.3,63,0.00,,SCT042,0.00,VWS V14.01,2013-03-31 11:55:00,
2013-03-31 13:00:00,42.3,28.1,29.88,ESE,123,10.5,10.5,57,0.00,,SCT042,0.00,VWS V14.01,2013-03-31 12:00:00,
2013-03-31 13:05:00,42.8,32.2,29.88,ESE,102,6.3,8.1,66,0.00,,BKN040,0.00,VWS V14.01,2013-03-31 12:05:00,
2013-03-31 13:10:00,42.4,27.0,29.88,East,92,7.6,8.3,54,0.00,,BKN040,0.00,VWS V14.01,2013-03-31 12:10:00,
2013-03-31 13:15:00,42.6,32.1,29.88,East,86,6.3,6.3,66,0.00,,BKN040,0.00,VWS V14.01,2013-03-31 12:15:00,
2013-03-31 13:20:00,42.4,28.7,29.88,ESE,108,7.6,7.6,58,0.00,,BKN040,0.00,VWS V14.01,2013-03-31 12:20:00,
2013-03-31 13:25:00,42.6,31.7,29.88,ESE,120,4.0,6.3,65,0.00,,BKN040,0.00,VWS V14.01,2013-03-31 12:25:00,
2013-03-31 13:30:00,42.6,30.1,29.88,ESE,120,8.7,10.1,61,0.00,,BKN040,0.00,VWS V14.01,2013-03-31 12:30:00,
2013-03-31 13:35:00,42.3,31.0,29.88,SE,130,8.7,10.1,64,0.00,,BKN040,0.00,VWS V14.01,2013-03-31 12:35:00,
2013-03-31 13:40:00,42.1,30.8,29.88,ESE,118,4.9,6.3,64,0.00,,BKN040,0.00,VWS V14.01,2013-03-31 12:40:00,
2013-03-31 13:45:00,42.8,34.8,29.88,ENE,77,4.9,6.7,73,0.00,,BKN040,0.00,VWS V14.01,2013-03-31 12:45:00,
2013-03-31 13:50:00,43.0,34.9,29.88,East,98,5.4,5.8,73,0.00,,BKN040,0.00,VWS V14.01,2013-03-31 12:50:00,
2013-03-31 13:55:00,43.2,35.5,29.88,East,80,4.9,5.8,74,0.00,,BKN040,0.00,VWS V14.01,2013-03-31 12:55:00,
2013-03-31 14:00:00,43.2,35.5,29.88,ESE,102,4.0,4.0,74,0.00,,BKN047,0.00,VWS V14.01,2013-03-31 13:00:00,
2013-03-31 14:05:00,42.6,33.2,29.88,ENE,62,4.9,8.1,69,0.00,,BKN047,0.00,VWS V14.01,2013-03-31 13:05:00,
2013-03-31 14:10:00,42.6,34.9,29.88,East,87,5.8,5.8,74,0.00,,BKN047,0.00,VWS V14.01,2013-03-31 13:10:00,
2013-03-31 14:15:00,42.4,33.7,29.88,East,99,6.3,9.6,71,0.00,,BKN047,0.00,VWS V14.01,2013-03-31 13:15:00,
2013-03-31 14:20:00,42.1,31.9,29.88,East,89,5.4,6.3,67,0.00,,BKN047,0.00,VWS V14.01,2013-03-31 13:20:00,
2013-03-31 14:25:00,41.5,31.8,29.88,ENE,76,8.7,8.7,68,0.00,,BKN047,0.00,VWS V14.01,2013-03-31 13:25:00,
2013-03-31 14:30:00,41.2,29.2,29.88,ENE,65,3.6,8.3,62,0.00,,BKN047,0.00,VWS V14.01,2013-03-31 13:30:00,
2013-03-31 14:36:00,41.4,31.2,29.88,ENE,58,3.6,5.8,67,0.00,,BKN047,0.00,VWS V14.01,2013-03-31 13:36:00,
2013-03-31 14:41:00,41.5,31.4,29.88,ENE,71,4.9,8.7,67,0.00,,BKN047,0.00,VWS V14.01,2013-03-31 13:41:00,
2013-03-31 14:46:00,41.9,32.8,29.88,East,96,3.1,4.0,70,0.00,,BKN047,0.00,VWS V14.01,2013-03-31 13:46:00,
2013-03-31 14:51:00,42.3,34.9,29.88,East,84,5.4,7.6,75,0.00,,BKN047,0.00,VWS V14.01,2013-03-31 13:51:00,
2013-03-31 14:56:00,41.9,33.5,29.88,SE,128,7.6,7.6,72,0.00,,BKN047,0.00,VWS V14.01,2013-03-31 13:56:00,
2013-03-31 15:01:00,41.5,32.8,29.85,ESE,109,8.7,10.1,71,0.00,,BKN048,0.00,VWS V14.01,2013-03-31 14:01:00,
2013-03-31 15:06:00,41.4,32.7,29.85,ENE,70,4.9,8.7,71,0.00,,BKN048,0.00,VWS V14.01,2013-03-31 14:06:00,
2013-03-31 15:11:00,41.0,29.4,29.85,NE,56,5.8,10.5,63,0.00,,BKN048,0.00,VWS V14.01,2013-03-31 14:11:00,
2013-03-31 15:16:00,40.8,28.8,29.85,East,93,6.3,7.2,62,0.00,,BKN048,0.00,VWS V14.01,2013-03-31 14:16:00,
2013-03-31 15:21:00,41.2,32.5,29.85,ESE,109,6.7,8.1,71,0.00,,BKN048,0.00,VWS V14.01,2013-03-31 14:21:00,
2013-03-31 15:26:00,41.4,33.0,29.85,East,93,8.3,8.3,72,0.00,,BKN048,0.00,VWS V14.01,2013-03-31 14:26:00,
2013-03-31 15:32:00,41.4,30.1,29.85,ENE,70,7.6,8.1,64,0.00,,BKN048,0.00,VWS V14.01,2013-03-31 14:32:00,
2013-03-31 15:37:00,41.7,33.0,29.85,East,85,5.4,8.3,71,0.00,,BKN048,0.00,VWS V14.01,2013-03-31 14:37:00,
2013-03-31 15:42:00,41.5,31.4,29.85,ESE,123,5.4,6.3,67,0.00,,BKN048,0.00,VWS V14.01,2013-03-31 14:42:00,
2013-03-31 15:47:00,41.7,32.0,29.85,ENE,76,8.1,8.3,68,0.00,,BKN048,0.00,VWS V14.01,2013-03-31 14:47:00,
2013-03-31 15:52:00,41.9,33.2,29.85,ESE,105,8.3,8.3,71,0.00,,BKN048,0.00,VWS V14.01,2013-03-31 14:52:00,
2013-03-31 15:57:00,41.5,32.5,29.85,ESE,117,8.3,8.3,70,0.00,,BKN048,0.00,VWS V14.01,2013-03-31 14:57:00,
2013-03-31 16:02:00,41.2,29.9,29.85,ESE,122,9.2,9.2,64,0.00,,BKN049,0.00,VWS V14.01,2013-03-31 15:02:00,
2013-03-31 16:07:00,41.0,27.8,29.85,ENE,66,6.3,6.3,59,0.00,,BKN049,0.00,VWS V14.01,2013-03-31 15:07:00,
2013-03-31 16:12:00,41.2,29.6,29.85,ENE,73,7.2,8.1,63,0.00,,BKN049,0.00,VWS V14.01,2013-03-31 15:12:00,
2013-03-31 16:17:00,41.5,30.7,29.85,East,80,11.0,11.0,65,0.00,,BKN049,0.00,VWS V14.01,2013-03-31 15:17:00,
2013-03-31 16:22:00,41.4,29.3,29.85,ESE,103,10.1,10.1,62,0.00,,BKN049,0.00,VWS V14.01,2013-03-31 15:22:00,
2013-03-31 16:27:00,41.2,29.2,29.85,NE,48,8.1,8.3,62,0.00,,BKN049,0.00,VWS V14.01,2013-03-31 15:27:00,
2013-03-31 16:32:00,41.0,29.4,29.85,ESE,115,7.6,8.7,63,0.00,,BKN049,0.00,VWS V14.01,2013-03-31 15:32:00,
2013-03-31 16:38:00,41.0,30.5,29.85,ESE,110,7.6,7.6,66,0.00,,BKN049,0.00,VWS V14.01,2013-03-31 15:38:00,
2013-03-31 16:43:00,40.8,29.2,29.85,ESE,106,5.4,5.8,63,0.00,,BKN049,0.00,VWS V14.01,2013-03-31 15:43:00,
2013-03-31 16:48:00,40.6,27.9,29.85,ENE,63,6.7,7.6,60,0.00,,BKN049,0.00,VWS V14.01,2013-03-31 15:48:00,
2013-03-31 16:53:00,41.2,27.5,29.85,East,91,5.8,8.7,58,0.00,,BKN049,0.00,VWS V14.01,2013-03-31 15:53:00,
2013-03-31 16:58:00,41.4,29.3,29.85,ESE,103,5.4,5.8,62,0.00,,BKN049,0.00,VWS V14.01,2013-03-31 15:58:00,
2013-03-31 17:03:00,41.2,29.2,29.85,ESE,119,8.7,8.7,62,0.00,,BKN044,0.00,VWS V14.01,2013-03-31 16:03:00,
2013-03-31 17:08:00,41.0,29.8,29.85,ENE,75,6.3,7.6,64,0.00,,BKN044,0.00,VWS V14.01,2013-03-31 16:08:00,
2013-03-31 17:13:00,40.5,26.9,29.85,East,95,7.6,8.7,58,0.00,,BKN044,0.00,VWS V14.01,2013-03-31 16:13:00,
2013-03-31 17:18:00,40.5,27.7,29.85,East,93,7.6,11.0,60,0.00,,BKN044,0.00,VWS V14.01,2013-03-31 16:18:00,
2013-03-31 17:23:00,40.3,25.0,29.85,East,99,6.3,6.3,54,0.00,,BKN044,0.00,VWS V14.01,2013-03-31 16:23:00,
2013-03-31 17:28:00,40.3,27.1,29.83,East,90,8.1,9.6,59,0.00,,BKN044,0.00,VWS V14.01,2013-03-31 16:28:00,
2013-03-31 17:33:00,40.3,26.7,29.83,East,79,6.3,6.3,58,0.00,,BKN044,0.00,VWS V14.01,2013-03-31 16:33:00,
2013-03-31 17:39:00,40.3,26.7,29.83,East,79,5.8,9.6,58,0.00,,BKN044,0.00,VWS V14.01,2013-03-31 16:39:00,
2013-03-31 17:44:00,40.3,27.5,29.83,ENE,74,8.3,8.7,60,0.00,,BKN044,0.00,VWS V14.01,2013-03-31 16:44:00,
2013-03-31 17:49:00,39.9,25.1,29.83,East,96,4.9,10.1,55,0.00,,BKN044,0.00,VWS V14.01,2013-03-31 16:49:00,
2013-03-31 17:54:00,40.1,28.1,29.83,ESE,106,7.6,8.3,62,0.00,,BKN044,0.00,VWS V14.01,2013-03-31 16:54:00,
2013-03-31 17:59:00,40.3,27.5,29.83,SE,124,5.8,8.3,60,0.00,,BKN044,0.00,VWS V14.01,2013-03-31 16:59:00,
2013-03-31 18:04:00,40.5,29.6,29.83,NE,36,8.7,8.7,65,0.00,,BKN047,0.00,VWS V14.01,2013-03-31 17:04:00,
2013-03-31 18:09:00,40.5,29.6,29.83,ENE,72,4.0,8.7,65,0.00,,BKN047,0.00,VWS V14.01,2013-03-31 17:09:00,
2013-03-31 18:14:00,40.5,31.1,29.83,NE,55,6.3,6.3,69,0.00,,BKN047,0.00,VWS V14.01,2013-03-31 17:14:00,
2013-03-31 18:19:00,39.9,25.5,29.83,ESE,102,8.7,10.5,56,0.00,,BKN047,0.00,VWS V14.01,2013-03-31 17:19:00,
2013-03-31 18:24:00,39.6,26.0,29.83,East,84,8.1,8.1,58,0.00,,BKN047,0.00,VWS V14.01,2013-03-31 17:24:00,
2013-03-31 18:29:00,39.7,28.6,29.83,East,88,8.3,8.3,64,0.00,,BKN047,0.00,VWS V14.01,2013-03-31 17:29:00,
2013-03-31 18:34:00,39.9,30.2,29.83,East,85,6.3,6.3,68,0.00,,BKN047,0.00,VWS V14.01,2013-03-31 17:34:00,
2013-03-31 18:39:00,39.7,28.6,29.83,ENE,74,8.1,8.1,64,0.00,,BKN047,0.00,VWS V14.01,2013-03-31 17:39:00,
2013-03-31 18:44:00,39.6,28.8,29.83,ENE,68,6.3,10.5,65,0.00,,BKN047,0.00,VWS V14.01,2013-03-31 17:44:00,
2013-03-31 18:49:00,39.0,24.2,29.83,NE,52,11.0,11.0,55,0.00,,BKN047,0.00,VWS V14.01,2013-03-31 17:49:00,
2013-03-31 18:54:00,39.2,28.1,29.83,East,79,8.1,8.1,64,0.00,,BKN047,0.00,VWS V14.01,2013-03-31 17:54:00,
2013-03-31 18:59:00,39.2,27.7,29.83,East,89,5.8,8.1,63,0.00,,BKN047,0.00,VWS V14.01,2013-03-31 17:59:00,
2013-03-31 19:04:00,39.2,29.2,29.83,East,99,5.4,8.7,67,0.00,,BKN048,0.00,VWS V14.01,2013-03-31 18:04:00,
2013-03-31 19:09:00,39.2,28.4,29.83,East,93,6.3,8.3,65,0.00,,BKN048,0.00,VWS V14.01,2013-03-31 18:09:00,
2013-03-31 19:14:00,39.0,28.3,29.83,ESE,109,5.4,6.7,65,0.00,,BKN048,0.00,VWS V14.01,2013-03-31 18:14:00,
2013-03-31 19:19:00,39.2,29.5,29.83,ENE,76,3.6,7.6,68,0.00,,BKN048,0.00,VWS V14.01,2013-03-31 18:19:00,
2013-03-31 19:24:00,39.0,30.1,29.83,East,101,5.4,6.3,70,0.00,,BKN048,0.00,VWS V14.01,2013-03-31 18:24:00,
2013-03-31 19:30:00,39.2,31.0,29.83,ENE,76,4.9,5.8,72,0.00,,BKN048,0.00,VWS V14.01,2013-03-31 18:30:00,
2013-03-31 19:35:00,39.0,31.5,29.83,East,98,9.6,9.6,74,0.00,,BKN048,0.00,VWS V14.01,2013-03-31 18:35:00,
2013-03-31 19:40:00,38.8,30.3,29.83,NE,56,5.8,8.3,71,0.00,,BKN048,0.00,VWS V14.01,2013-03-31 18:40:00,
2013-03-31 19:45:00,38.7,30.1,29.83,NE,43,7.6,8.1,71,0.00,,BKN048,0.00,VWS V14.01,2013-03-31 18:45:00,
2013-03-31 19:50:00,38.7,29.7,29.83,ENE,74,7.2,9.6,70,0.00,,BKN048,0.00,VWS V14.01,2013-03-31 18:50:00,
2013-03-31 19:55:00,38.7,31.1,29.83,ESE,103,6.3,6.3,74,0.00,,BKN048,0.00,VWS V14.01,2013-03-31 18:55:00,
2013-03-31 20:00:00,38.7,31.8,29.83,ESE,119,4.9,5.4,76,0.00,,BKN048,0.00,VWS V14.01,2013-03-31 19:00:00,
2013-03-31 20:05:00,38.7,32.1,29.83,ESE,115,4.0,4.9,77,0.00,,BKN046,0.00,VWS V14.01,2013-03-31 19:05:00,
2013-03-31 20:10:00,38.5,31.6,29.83,SE,127,4.0,4.0,76,0.00,,BKN046,0.00,VWS V14.01,2013-03-31 19:10:00,
2013-03-31 20:15:00,38.5,31.6,29.83,ESE,102,5.4,5.8,76,0.00,,BKN046,0.00,VWS V14.01,2013-03-31 19:15:00,
2013-03-31 20:20:00,38.5,32.2,29.83,SE,125,6.3,8.1,78,0.00,,BKN046,0.00,VWS V14.01,2013-03-31 19:20:00,
2013-03-31 20:25:00,38.5,32.2,29.83,ESE,120,5.8,6.3,78,0.00,,BKN046,0.00,VWS V14.01,2013-03-31 19:25:00,
2013-03-31 20:30:00,38.3,31.1,29.83,East,86,2.7,5.4,75,0.00,,BKN046,0.00,VWS V14.01,2013-03-31 19:30:00,
2013-03-31 20:35:00,38.3,32.0,29.83,SE,139,3.6,5.4,78,0.00,,BKN046,0.00,VWS V14.01,2013-03-31 19:35:00,
2013-03-31 20:40:00,38.5,32.9,29.83,East,89,4.0,5.8,80,0.00,,BKN046,0.00,VWS V14.01,2013-03-31 19:40:00,
2013-03-31 20:45:00,38.5,33.8,29.83,ENE,69,5.8,5.8,83,0.00,,BKN046,0.00,VWS V14.01,2013-03-31 19:45:00,
2013-03-31 20:50:00,38.5,34.1,29.83,East,92,3.1,5.8,84,0.00,,BKN046,0.00,VWS V14.01,2013-03-31 19:50:00,
2013-03-31 20:55:00,38.5,34.4,29.83,East,90,2.7,3.6,85,0.00,,BKN046,0.00,VWS V14.01,2013-03-31 19:55:00,
2013-03-31 21:00:00,38.1,33.7,29.83,NE,54,6.3,6.3,84,0.00,,BKN038,0.00,VWS V14.01,2013-03-31 20:00:00,
2013-03-31 21:06:00,38.1,33.4,29.83,East,84,5.4,5.8,83,0.00,,BKN038,0.00,VWS V14.01,2013-03-31 20:06:00,
2013-03-31 21:11:00,38.1,33.4,29.83,East,81,2.7,6.3,83,0.00,,BKN038,0.00,VWS V14.01,2013-03-31 20:11:00,
2013-03-31 21:16:00,38.1,33.7,29.83,East,86,4.9,8.3,84,0.00,,BKN038,0.00,VWS V14.01,2013-03-31 20:16:00,
2013-03-31 21:21:00,38.1,33.7,29.83,ESE,117,6.3,6.3,84,0.00,,BKN038,0.00,VWS V14.01,2013-03-31 20:21:00,
2013-03-31 21:26:00,38.1,33.7,29.83,ENE,71,4.0,5.8,84,0.00,,BKN038,0.00,VWS V14.01,2013-03-31 20:26:00,
2013-03-31 21:31:00,37.9,33.5,29.83,East,83,8.1,8.1,84,0.00,,BKN038,0.00,VWS V14.01,2013-03-31 20:31:00,
2013-03-31 21:36:00,37.8,33.1,29.83,ESE,113,5.4,5.4,83,0.00,,BKN038,0.00,VWS V14.01,2013-03-31 20:36:00,
2013-03-31 21:41:00,37.6,33.2,29.85,ENE,68,5.4,5.4,84,0.00,,BKN038,0.00,VWS V14.01,2013-03-31 20:41:00,
2013-03-31 21:46:00,37.6,33.2,29.85,East,79,5.4,5.4,84,0.00,,BKN038,0.00,VWS V14.01,2013-03-31 20:46:00,
2013-03-31 21:52:00,37.0,32.7,29.85,ESE,103,5.8,7.6,84,0.00,,BKN038,0.00,VWS V14.01,2013-03-31 20:52:00,
2013-03-31 21:57:00,37.0,32.1,29.83,East,81,8.7,8.7,82,0.00,,BKN038,0.00,VWS V14.01,2013-03-31 20:57:00,
2013-03-31 22:02:00,36.9,32.2,29.83,East,81,4.9,4.9,83,0.00,,BKN049,0.00,VWS V14.01,2013-03-31 21:02:00,
2013-03-31 22:07:00,36.9,32.5,29.83,NE,52,6.3,6.3,84,0.00,,BKN049,0.00,VWS V14.01,2013-03-31 21:07:00,
2013-03-31 22:12:00,36.9,33.1,29.83,NE,47,5.4,8.1,86,0.00,,BKN049,0.00,VWS V14.01,2013-03-31 21:12:00,
2013-03-31 22:17:00,36.9,32.5,29.83,ENE,75,8.1,8.1,84,0.00,,BKN049,0.00,VWS V14.01,2013-03-31 21:17:00,
2013-03-31 22:22:00,36.9,32.5,29.83,ENE,76,5.8,6.3,84,0.00,,BKN049,0.00,VWS V14.01,2013-03-31 21:22:00,
2013-03-31 22:27:00,36.9,32.2,29.83,East,100,5.8,8.1,83,0.00,,BKN049,0.00,VWS V14.01,2013-03-31 21:27:00,
2013-03-31 22:32:00,37.0,32.4,29.83,ENE,68,3.6,4.9,83,0.00,,BKN049,0.00,VWS V14.01,2013-03-31 21:32:00,
2013-03-31 22:37:00,37.0,32.7,29.83,ENE,65,5.4,5.4,84,0.00,,BKN049,0.00,VWS V14.01,2013-03-31 21:37:00,
2013-03-31 22:42:00,37.0,32.7,29.83,East,79,5.8,5.8,84,0.00,,BKN049,0.00,VWS V14.01,2013-03-31 21:42:00,
2013-03-31 22:47:00,36.9,32.5,29.83,ENE,61,8.1,8.1,84,0.00,,BKN049,0.00,VWS V14.01,2013-03-31 21:47:00,
2013-03-31 22:53:00,36.9,32.2,29.83,NE,39,7.2,9.2,83,0.00,,BKN049,0.00,VWS V14.01,2013-03-31 21:53:00,
2013-03-31 22:58:00,36.7,32.3,29.83,ENE,73,5.8,8.3,84,0.00,,BKN049,0.00,VWS V14.01,2013-03-31 21:58:00,
2013-03-31 23:03:00,36.7,32.3,29.83,East,86,3.6,8.1,84,0.00,,SCT024,0.00,VWS V14.01,2013-03-31 22:03:00,
2013-03-31 23:08:00,36.7,32.3,29.83,ENE,72,5.4,6.3,84,0.00,,SCT024,0.00,VWS V14.01,2013-03-31 22:08:00,
2013-03-31 23:13:00,36.7,32.3,29.83,ENE,75,5.8,5.8,84,0.00,,SCT024,0.00,VWS V14.01,2013-03-31 22:13:00,
2013-03-31 23:18:00,36.7,32.3,29.83,NNE,31,4.9,5.4,84,0.00,,SCT024,0.00,VWS V14.01,2013-03-31 22:18:00,
2013-03-31 23:23:00,36.7,32.3,29.83,ENE,64,5.4,6.3,84,0.00,,SCT024,0.00,VWS V14.01,2013-03-31 22:23:00,
2013-03-31 23:28:00,35.8,32.3,29.83,ENE,65,3.6,3.6,87,0.00,,SCT024,0.00,VWS V14.01,2013-03-31 22:28:00,
2013-03-31 23:33:00,35.6,32.4,29.83,East,96,4.9,4.9,88,0.00,,SCT024,0.00,VWS V14.01,2013-03-31 22:33:00,
2013-03-31 23:38:00,35.6,32.4,29.83,ENE,62,4.9,4.9,88,0.00,,SCT024,0.00,VWS V14.01,2013-03-31 22:38:00,
2013-03-31 23:43:00,35.4,32.5,29.83,ENE,66,5.4,5.8,89,0.00,,SCT024,0.00,VWS V14.01,2013-03-31 22:43:00,
2013-03-31 23:48:00,35.2,32.3,29.83,ENE,71,3.1,4.0,89,0.00,,SCT024,0.00,VWS V14.01,2013-03-31 22:48:00,
2013-03-31 23:53:00,35.1,32.4,29.83,ENE,66,5.4,5.4,90,0.00,,SCT024,0.00,VWS V14.01,2013-03-31 22:53:00,
2013-03-31 23:58:00,35.1,32.4,29.83,East,86,5.4,5.4,90,0.00,,SCT024,0.00,VWS V14.01,2013-03-31 22:58:00,